createdAt,value
2022-10-17T00:01:20.241Z,12.27
2022-10-17T00:03:49.850Z,12.22
2022-10-17T00:06:19.982Z,12.23
2022-10-17T00:08:48.305Z,12.23
2022-10-17T00:11:19.203Z,12.21
2022-10-17T00:13:49.702Z,12.17
2022-10-17T00:16:25.305Z,12.10
2022-10-17T00:18:55.687Z,12.06
2022-10-17T00:21:26.853Z,12.05
2022-10-17T00:23:55.968Z,12.05
2022-10-17T00:26:24.918Z,12.00
2022-10-17T00:28:54.466Z,12.01
2022-10-17T00:31:24.636Z,12.02
2022-10-17T00:33:53.934Z,12.08
2022-10-17T00:36:26.568Z,12.13
2022-10-17T00:38:55.725Z,12.17
2022-10-17T00:41:26.756Z,12.22
2022-10-17T00:43:58.400Z,12.28
2022-10-17T00:46:29.337Z,12.29
2022-10-17T00:49:00.375Z,12.29
2022-10-17T00:51:35.458Z,12.32
2022-10-17T00:54:05.027Z,12.31
2022-10-17T00:56:34.130Z,12.22
2022-10-17T00:59:03.443Z,12.23
2022-10-17T01:01:33.440Z,12.18
2022-10-17T01:04:02.379Z,12.15
2022-10-17T01:06:52.752Z,12.13
2022-10-17T01:09:21.918Z,12.11
2022-10-17T01:11:58.219Z,12.09
2022-10-17T01:14:34.187Z,12.13
2022-10-17T01:17:10.279Z,12.17
2022-10-17T01:20:07.312Z,12.18
2022-10-17T01:22:47.239Z,12.13
2022-10-17T01:25:38.511Z,12.09
2022-10-17T01:28:30.310Z,12.08
2022-10-17T01:31:08.862Z,12.02
2022-10-17T01:33:55.372Z,11.99
2022-10-17T01:36:37.454Z,11.95
2022-10-17T01:39:12.030Z,11.95
2022-10-17T01:41:45.001Z,11.95
2022-10-17T01:44:19.690Z,11.96
2022-10-17T01:46:52.020Z,12.02
2022-10-17T01:49:26.009Z,12.06
2022-10-17T01:52:00.506Z,12.10
2022-10-17T01:54:34.299Z,12.15
2022-10-17T01:57:09.275Z,12.16
2022-10-17T01:59:42.624Z,12.17
2022-10-17T02:02:16.456Z,12.16
2022-10-17T02:04:45.434Z,12.13
2022-10-17T02:07:15.172Z,12.08
2022-10-17T02:09:44.061Z,12.05
2022-10-17T02:12:35.260Z,12.01
2022-10-17T02:15:17.999Z,12.03
2022-10-17T02:17:56.465Z,12.02
2022-10-17T02:20:30.699Z,12.04
2022-10-17T02:23:06.927Z,12.02
2022-10-17T02:25:41.691Z,12.00
2022-10-17T02:28:21.089Z,11.95
2022-10-17T02:30:56.790Z,11.85
2022-10-17T02:33:33.074Z,11.77
2022-10-17T02:36:05.997Z,11.71
2022-10-17T02:38:36.098Z,11.72
2022-10-17T02:41:07.602Z,11.72
2022-10-17T02:43:37.987Z,11.72
2022-10-17T02:46:08.446Z,11.71
2022-10-17T02:48:43.954Z,11.73
2022-10-17T02:51:21.679Z,11.72
2022-10-17T02:53:56.891Z,11.70
2022-10-17T02:56:28.660Z,11.68
2022-10-17T02:59:00.893Z,11.68
2022-10-17T03:01:31.917Z,11.64
2022-10-17T03:04:11.922Z,11.59
2022-10-17T03:06:42.004Z,11.55
2022-10-17T03:09:10.923Z,11.49
2022-10-17T03:11:39.776Z,11.46
2022-10-17T03:14:09.914Z,11.41
2022-10-17T03:16:38.581Z,11.36
2022-10-17T03:19:09.002Z,11.34
2022-10-17T03:21:38.736Z,11.35
2022-10-17T03:24:08.991Z,11.36
2022-10-17T03:26:37.726Z,11.31
2022-10-17T03:29:07.098Z,11.31
2022-10-17T03:31:37.762Z,11.34
2022-10-17T03:34:09.793Z,11.33
2022-10-17T03:36:38.611Z,11.31
2022-10-17T03:39:08.938Z,11.32
2022-10-17T03:41:37.535Z,11.29
2022-10-17T03:44:06.429Z,11.31
2022-10-17T03:46:35.905Z,11.29
2022-10-17T03:49:05.936Z,11.24
2022-10-17T03:51:38.044Z,11.20
2022-10-17T03:54:13.857Z,11.21
2022-10-17T03:56:42.568Z,11.20
2022-10-17T03:59:15.566Z,11.19
2022-10-17T04:01:50.022Z,11.21
2022-10-17T04:04:20.075Z,11.24
2022-10-17T04:06:50.118Z,11.27
2022-10-17T04:09:18.742Z,11.30
2022-10-17T04:12:10.757Z,11.34
2022-10-17T04:14:40.301Z,11.37
2022-10-17T04:17:09.730Z,11.36
2022-10-17T04:19:41.573Z,11.34
2022-10-17T04:22:12.225Z,11.31
2022-10-17T04:24:41.467Z,11.29
2022-10-17T04:27:22.417Z,11.23
2022-10-17T04:29:51.408Z,11.17
2022-10-17T04:32:26.244Z,11.11
2022-10-17T04:35:18.238Z,11.07
2022-10-17T04:37:53.837Z,11.02
2022-10-17T04:40:23.099Z,10.96
2022-10-17T04:42:54.602Z,10.88
2022-10-17T04:45:28.809Z,10.81
2022-10-17T04:48:03.796Z,10.77
2022-10-17T04:50:32.356Z,10.76
2022-10-17T04:53:30.314Z,10.75
2022-10-17T04:55:59.189Z,10.72
2022-10-17T04:58:29.689Z,10.69
2022-10-17T05:00:58.760Z,10.67
2022-10-17T05:03:30.850Z,10.64
2022-10-17T05:06:05.815Z,10.56
2022-10-17T05:08:36.220Z,10.53
2022-10-17T05:11:07.065Z,10.50
2022-10-17T05:13:37.475Z,10.48
2022-10-17T05:16:07.658Z,10.45
2022-10-17T05:18:37.292Z,10.43
2022-10-17T05:21:07.186Z,10.39
2022-10-17T05:23:39.490Z,10.39
2022-10-17T05:26:09.357Z,10.40
2022-10-17T05:28:38.431Z,10.43
2022-10-17T05:31:09.726Z,10.43
2022-10-17T05:33:40.281Z,10.47
2022-10-17T05:36:09.564Z,10.50
2022-10-17T05:38:40.209Z,10.52
2022-10-17T05:41:09.118Z,10.59
2022-10-17T05:43:37.945Z,10.60
2022-10-17T05:46:08.280Z,10.61
2022-10-17T05:48:38.652Z,10.64
2022-10-17T05:51:10.187Z,10.68
2022-10-17T05:53:42.484Z,10.71
2022-10-17T05:56:17.581Z,10.75
2022-10-17T05:58:53.203Z,10.79
2022-10-17T06:01:42.750Z,10.82
2022-10-17T06:04:11.600Z,10.86
2022-10-17T06:06:41.592Z,10.92
2022-10-17T06:09:12.611Z,10.95
2022-10-17T06:11:45.327Z,11.02
2022-10-17T06:14:14.424Z,11.09
2022-10-17T06:16:43.937Z,11.14
2022-10-17T06:19:12.852Z,11.20
2022-10-17T06:21:42.218Z,11.29
2022-10-17T06:24:16.223Z,11.36
2022-10-17T06:26:47.574Z,11.45
2022-10-17T06:29:17.766Z,11.51
2022-10-17T06:31:53.002Z,11.58
2022-10-17T06:34:22.410Z,11.69
2022-10-17T06:36:51.274Z,11.80
2022-10-17T06:39:23.334Z,11.88
2022-10-17T06:42:05.493Z,12.00
2022-10-17T06:44:54.525Z,12.14
2022-10-17T06:47:52.659Z,12.46
2022-10-17T06:50:43.756Z,12.44
2022-10-17T06:53:17.071Z,12.45
2022-10-17T06:56:01.522Z,12.51
2022-10-17T06:58:51.510Z,12.62
2022-10-17T07:01:37.353Z,12.69
2022-10-17T07:04:07.401Z,12.80
2022-10-17T07:06:36.751Z,12.88
2022-10-17T07:09:17.320Z,12.97
2022-10-17T07:11:47.622Z,13.04
2022-10-17T07:14:22.913Z,13.12
2022-10-17T07:16:57.751Z,13.21
2022-10-17T07:19:28.399Z,13.28
2022-10-17T07:21:57.391Z,13.41
2022-10-17T07:24:27.180Z,13.50
2022-10-17T07:27:03.855Z,13.59
2022-10-17T07:29:36.394Z,13.76
2022-10-17T07:32:11.815Z,13.84
2022-10-17T07:34:41.117Z,13.97
2022-10-17T07:37:12.167Z,14.07
2022-10-17T07:39:44.236Z,14.13
2022-10-17T07:42:14.954Z,14.19
2022-10-17T07:44:47.621Z,14.32
2022-10-17T07:47:17.188Z,14.48
2022-10-17T07:49:47.059Z,14.59
2022-10-17T07:52:17.213Z,14.67
2022-10-17T07:54:46.144Z,14.79
2022-10-17T07:57:16.763Z,14.85
2022-10-17T07:59:48.589Z,15.00
2022-10-17T08:02:20.370Z,15.21
2022-10-17T08:04:52.331Z,15.45
2022-10-17T08:07:29.259Z,15.74
2022-10-17T08:09:58.657Z,16.52
2022-10-17T08:12:32.653Z,17.25
2022-10-17T08:15:02.100Z,18.78
2022-10-17T08:17:31.074Z,20.01
2022-10-17T08:19:59.777Z,20.49
2022-10-17T08:22:31.468Z,20.34
2022-10-17T08:25:00.614Z,20.00
2022-10-17T08:27:31.736Z,19.85
2022-10-17T08:30:00.453Z,19.81
2022-10-17T08:32:30.536Z,19.93
2022-10-17T08:34:59.498Z,20.02
2022-10-17T08:37:31.852Z,20.24
2022-10-17T08:40:01.607Z,20.71
2022-10-17T08:42:52.157Z,21.57
2022-10-17T08:45:29.070Z,22.62
2022-10-17T08:48:03.660Z,23.40
2022-10-17T08:50:38.715Z,23.86
2022-10-17T08:53:17.464Z,24.35
2022-10-17T08:55:48.486Z,24.61
2022-10-17T08:58:23.401Z,24.87
2022-10-17T09:01:02.459Z,24.99
2022-10-17T09:04:04.181Z,24.64
2022-10-17T09:06:39.123Z,23.96
2022-10-17T09:09:22.264Z,23.66
2022-10-17T09:12:01.405Z,23.79
2022-10-17T09:14:55.984Z,24.35
2022-10-17T09:17:36.942Z,24.98
2022-10-17T09:20:11.429Z,25.84
2022-10-17T09:22:45.575Z,26.19
2022-10-17T09:25:19.201Z,26.35
2022-10-17T09:27:51.267Z,26.74
2022-10-17T09:30:45.479Z,27.34
2022-10-17T09:33:28.510Z,27.68
2022-10-17T09:36:05.660Z,27.95
2022-10-17T09:38:41.725Z,27.84
2022-10-17T09:41:42.776Z,27.81
2022-10-17T09:44:21.901Z,27.88
2022-10-17T09:47:16.365Z,27.78
2022-10-17T09:49:48.598Z,28.09
2022-10-17T09:52:20.198Z,28.41
2022-10-17T09:54:51.394Z,28.41
2022-10-17T09:57:22.038Z,28.05
2022-10-17T10:00:09.583Z,27.72
2022-10-17T10:02:45.573Z,27.54
2022-10-17T10:05:18.488Z,27.28
2022-10-17T10:08:04.989Z,27.18
2022-10-17T10:10:34.500Z,27.09
2022-10-17T10:13:08.584Z,27.19
2022-10-17T10:15:41.744Z,27.03
2022-10-17T10:18:58.470Z,27.31
2022-10-17T10:22:01.028Z,27.44
2022-10-17T10:24:31.179Z,27.77
2022-10-17T10:27:05.613Z,28.13
2022-10-17T10:29:38.414Z,28.62
2022-10-17T10:32:14.045Z,29.41
2022-10-17T10:34:50.971Z,30.28
2022-10-17T10:37:22.974Z,31.07
2022-10-17T10:39:54.407Z,31.90
2022-10-17T10:42:25.436Z,32.23
2022-10-17T10:45:00.156Z,32.70
2022-10-17T10:47:32.178Z,33.26
2022-10-17T10:50:29.513Z,33.67
2022-10-17T10:53:30.763Z,33.73
2022-10-17T10:56:14.789Z,34.00
2022-10-17T10:58:57.200Z,34.15
2022-10-17T11:01:32.993Z,34.28
2022-10-17T11:04:16.269Z,34.48
2022-10-17T11:06:47.498Z,34.79
2022-10-17T11:09:32.912Z,35.24
2022-10-17T11:12:11.217Z,35.36
2022-10-17T11:14:46.489Z,35.25
2022-10-17T11:17:24.979Z,35.60
2022-10-17T11:20:02.357Z,35.88
2022-10-17T11:22:36.017Z,36.01
2022-10-17T11:25:14.431Z,36.25
2022-10-17T11:27:43.107Z,36.43
2022-10-17T11:30:15.474Z,36.42
2022-10-17T11:32:47.534Z,36.52
2022-10-17T11:35:22.218Z,36.16
2022-10-17T11:37:58.037Z,36.01
2022-10-17T11:40:32.290Z,36.27
2022-10-17T11:43:03.051Z,36.35
2022-10-17T11:45:38.276Z,36.30
2022-10-17T11:48:13.450Z,36.63
2022-10-17T11:53:48.250Z,36.73
2022-10-17T11:56:22.916Z,36.74
2022-10-17T11:58:59.102Z,36.50
2022-10-17T12:01:36.278Z,36.24
2022-10-17T12:04:27.876Z,35.85
2022-10-17T12:07:11.259Z,35.93
2022-10-17T12:09:47.975Z,36.24
2022-10-17T12:12:27.372Z,36.27
2022-10-17T12:15:29.205Z,36.43
2022-10-17T12:18:01.168Z,36.45
2022-10-17T12:20:35.829Z,36.36
2022-10-17T12:23:27.257Z,36.17
2022-10-17T12:26:04.488Z,36.02
2022-10-17T12:28:35.579Z,35.22
2022-10-17T12:31:07.319Z,33.23
2022-10-17T12:33:49.640Z,31.43
2022-10-17T12:36:39.814Z,30.81
2022-10-17T12:39:43.415Z,30.85
2022-10-17T12:42:41.529Z,29.73
2022-10-17T12:45:44.147Z,29.91
2022-10-17T12:48:14.167Z,31.51
2022-10-17T12:51:34.751Z,32.56
2022-10-17T12:54:00.140Z,32.93
2022-10-17T12:56:40.045Z,33.30
2022-10-17T12:59:14.739Z,33.65
2022-10-17T13:01:47.704Z,33.94
2022-10-17T13:04:19.303Z,33.82
2022-10-17T13:06:50.992Z,33.17
2022-10-17T13:09:22.290Z,33.09
2022-10-17T13:11:51.656Z,33.26
2022-10-17T13:14:24.236Z,33.63
2022-10-17T13:16:55.188Z,33.08
2022-10-17T13:19:27.984Z,32.33
2022-10-17T13:22:01.082Z,32.39
2022-10-17T13:24:35.980Z,32.73
2022-10-17T13:27:06.591Z,32.80
2022-10-17T13:29:45.825Z,32.98
2022-10-17T13:32:17.959Z,33.13
2022-10-17T13:34:50.711Z,33.14
2022-10-17T13:37:20.417Z,32.88
2022-10-17T13:39:55.542Z,31.74
2022-10-17T13:42:32.874Z,30.39
2022-10-17T13:45:04.297Z,29.35
2022-10-17T13:47:40.871Z,28.90
2022-10-17T13:50:42.909Z,28.50
2022-10-17T13:53:19.783Z,27.63
2022-10-17T13:56:09.749Z,26.69
2022-10-17T13:58:48.764Z,25.98
2022-10-17T14:01:18.594Z,25.52
2022-10-17T14:03:54.075Z,25.22
2022-10-17T14:06:32.711Z,24.92
2022-10-17T14:09:04.070Z,24.73
2022-10-17T14:11:40.985Z,24.44
2022-10-17T14:14:19.298Z,24.18
2022-10-17T14:16:48.217Z,24.01
2022-10-17T14:19:27.868Z,23.79
2022-10-17T14:22:20.158Z,23.65
2022-10-17T14:24:49.717Z,23.67
2022-10-17T14:27:38.533Z,23.57
2022-10-17T14:30:55.119Z,23.45
2022-10-17T14:33:24.934Z,23.23
2022-10-17T14:35:55.575Z,23.05
2022-10-17T14:38:29.983Z,22.87
2022-10-17T14:41:23.594Z,22.68
2022-10-17T14:43:54.720Z,22.51
2022-10-17T14:46:24.211Z,22.39
2022-10-17T14:49:07.663Z,22.28
2022-10-17T14:51:50.296Z,22.16
2022-10-17T14:54:29.989Z,22.02
2022-10-17T14:56:58.626Z,21.88
2022-10-17T14:59:52.934Z,21.76
2022-10-17T15:02:17.278Z,21.60
2022-10-17T15:04:46.165Z,21.45
2022-10-17T15:07:17.379Z,21.29
2022-10-17T15:09:50.838Z,21.13
2022-10-17T15:12:22.931Z,20.96
2022-10-17T15:14:52.567Z,20.86
2022-10-17T15:17:25.803Z,20.76
2022-10-17T15:19:54.960Z,20.67
2022-10-17T15:22:24.011Z,20.56
2022-10-17T15:24:54.720Z,20.48
2022-10-17T15:27:26.622Z,20.37
2022-10-17T15:29:59.399Z,20.28
2022-10-17T15:32:30.804Z,20.17
2022-10-17T15:34:59.809Z,20.08
2022-10-17T15:37:38.084Z,19.98
2022-10-17T15:40:14.556Z,19.90
2022-10-17T15:42:46.114Z,19.76
2022-10-17T15:45:17.565Z,19.63
2022-10-17T15:47:52.969Z,19.51
2022-10-17T15:50:24.936Z,19.40
2022-10-17T15:52:53.954Z,19.30
2022-10-17T15:55:24.269Z,19.19
2022-10-17T15:57:54.278Z,19.12
2022-10-17T16:00:25.534Z,19.03
2022-10-17T16:02:54.471Z,18.94
2022-10-17T16:05:25.891Z,18.88
2022-10-17T16:07:55.374Z,18.82
2022-10-17T16:10:26.880Z,18.75
2022-10-17T16:12:57.709Z,18.65
2022-10-17T16:15:30.875Z,18.57
2022-10-17T16:18:01.762Z,18.48
2022-10-17T16:20:33.572Z,18.46
2022-10-17T16:23:05.473Z,18.44
2022-10-17T16:25:36.353Z,18.39
2022-10-17T16:28:06.476Z,18.37
2022-10-17T16:30:39.450Z,18.33
2022-10-17T16:33:08.297Z,18.27
2022-10-17T16:35:38.962Z,18.22
2022-10-17T16:38:08.876Z,18.16
2022-10-17T16:40:40.432Z,18.08
2022-10-17T16:43:12.402Z,18.05
2022-10-17T16:45:42.221Z,18.01
2022-10-17T16:48:12.608Z,18.02
2022-10-17T16:50:41.911Z,17.98
2022-10-17T16:53:10.727Z,17.95
2022-10-17T16:55:41.061Z,17.89
2022-10-17T16:58:09.761Z,17.79
2022-10-17T17:00:41.676Z,17.69
2022-10-17T17:03:10.570Z,17.58
2022-10-17T17:05:39.363Z,17.49
2022-10-17T17:08:10.436Z,17.38
2022-10-17T17:10:47.456Z,17.29
2022-10-17T17:13:16.693Z,17.21
2022-10-17T17:15:46.468Z,17.14
2022-10-17T17:18:15.705Z,17.11
2022-10-17T17:20:44.594Z,17.07
2022-10-17T17:23:15.924Z,16.99
2022-10-17T17:25:45.505Z,16.94
2022-10-17T17:28:15.471Z,16.88
2022-10-17T17:30:47.504Z,16.83
2022-10-17T17:33:16.858Z,16.73
2022-10-17T17:35:45.718Z,16.67
2022-10-17T17:38:14.563Z,16.59
2022-10-17T17:40:50.657Z,16.50
2022-10-17T17:43:28.344Z,16.43
2022-10-17T17:45:57.210Z,16.36
2022-10-17T17:48:28.765Z,16.29
2022-10-17T17:51:04.164Z,16.21
2022-10-17T17:53:33.296Z,16.15
2022-10-17T17:56:03.458Z,16.12
2022-10-17T17:58:34.137Z,16.13
2022-10-17T18:01:11.386Z,16.09
2022-10-17T18:03:42.496Z,16.08
2022-10-17T18:06:11.417Z,16.03
2022-10-17T18:08:42.811Z,16.00
2022-10-17T18:11:17.168Z,15.99
2022-10-17T18:13:54.229Z,15.94
2022-10-17T18:16:23.314Z,15.90
2022-10-17T18:18:52.918Z,15.86
2022-10-17T18:21:24.263Z,15.80
2022-10-17T18:23:53.601Z,15.80
2022-10-17T18:26:22.496Z,15.77
2022-10-17T18:28:53.470Z,15.80
2022-10-17T18:31:28.650Z,15.79
2022-10-17T18:34:01.061Z,15.81
2022-10-17T18:36:31.084Z,15.80
2022-10-17T18:39:02.835Z,15.80
2022-10-17T18:41:33.079Z,15.76
2022-10-17T18:44:04.294Z,15.73
2022-10-17T18:46:36.434Z,15.69
2022-10-17T18:49:05.479Z,15.63
2022-10-17T18:51:35.156Z,15.59
2022-10-17T18:54:06.403Z,15.52
2022-10-17T18:56:35.473Z,15.50
2022-10-17T18:59:05.746Z,15.47
2022-10-17T19:01:35.945Z,15.48
2022-10-17T19:04:04.657Z,15.44
2022-10-17T19:06:43.891Z,15.42
2022-10-17T19:09:16.532Z,15.40
2022-10-17T19:11:45.408Z,15.37
2022-10-17T19:14:17.273Z,15.34
2022-10-17T19:16:48.041Z,15.28
2022-10-17T19:19:21.760Z,15.19
2022-10-17T19:21:51.204Z,15.13
2022-10-17T19:24:22.925Z,15.06
2022-10-17T19:26:53.602Z,15.00
2022-10-17T19:29:27.670Z,14.94
2022-10-17T19:34:30.893Z,14.86
2022-10-17T19:36:59.572Z,14.84
2022-10-17T19:39:28.834Z,14.77
2022-10-17T19:42:05.872Z,14.72
2022-10-17T19:44:38.274Z,14.70
2022-10-17T19:47:07.367Z,14.67
2022-10-17T19:49:36.256Z,14.65
2022-10-17T19:52:05.954Z,14.65
2022-10-17T19:54:34.686Z,14.65
2022-10-17T19:57:10.566Z,14.64
2022-10-17T19:59:41.472Z,14.62
2022-10-17T20:02:13.087Z,14.60
2022-10-17T20:04:54.515Z,14.58
2022-10-17T20:07:37.760Z,14.54
2022-10-17T20:10:11.116Z,14.50
2022-10-17T20:12:40.310Z,14.47
2022-10-17T20:15:12.634Z,14.44
2022-10-17T20:17:44.360Z,14.39
2022-10-17T20:20:13.352Z,14.37
2022-10-17T20:22:45.238Z,14.36
2022-10-17T20:25:14.502Z,14.35
2022-10-17T20:27:43.411Z,14.29
2022-10-17T20:30:14.614Z,14.28
2022-10-17T20:32:43.593Z,14.27
2022-10-17T20:35:12.495Z,14.25
2022-10-17T20:37:44.241Z,14.21
2022-10-17T20:43:02.279Z,14.16
2022-10-17T20:45:45.069Z,14.12
2022-10-17T20:48:21.111Z,14.05
2022-10-17T20:50:50.323Z,14.03
2022-10-17T20:53:37.294Z,14.01
2022-10-17T20:56:08.544Z,13.98
2022-10-17T20:58:37.498Z,13.96
2022-10-17T21:01:09.281Z,13.95
2022-10-17T21:03:40.985Z,13.88
2022-10-17T21:06:12.763Z,13.81
2022-10-17T21:08:41.425Z,13.78
2022-10-17T21:11:14.888Z,13.72
2022-10-17T21:13:43.770Z,13.69
2022-10-17T21:16:15.678Z,13.65
2022-10-17T21:18:45.824Z,13.60
2022-10-17T21:21:15.656Z,13.59
2022-10-17T21:23:46.575Z,13.58
2022-10-17T21:26:16.254Z,13.55
2022-10-17T21:28:46.545Z,13.55
2022-10-17T21:31:19.195Z,13.51
2022-10-17T21:33:50.246Z,13.46
2022-10-17T21:36:20.290Z,13.39
2022-10-17T21:38:50.954Z,13.36
2022-10-17T21:41:21.556Z,13.32
2022-10-17T21:43:53.876Z,13.31
2022-10-17T21:46:24.208Z,13.29
2022-10-17T21:48:53.438Z,13.26
2022-10-17T21:51:24.520Z,13.24
2022-10-17T21:53:55.669Z,13.22
2022-10-17T21:56:28.205Z,13.21
2022-10-17T21:58:58.798Z,13.20
2022-10-17T22:01:31.150Z,13.17
2022-10-17T22:04:02.349Z,13.14
2022-10-17T22:06:40.265Z,13.11
2022-10-17T22:09:13.410Z,13.09
2022-10-17T22:11:43.298Z,13.07
2022-10-17T22:14:16.928Z,13.02
2022-10-17T22:16:48.593Z,12.96
2022-10-17T22:19:19.664Z,12.98
2022-10-17T22:21:48.506Z,12.95
2022-10-17T22:24:19.113Z,12.97
2022-10-17T22:26:48.691Z,12.94
2022-10-17T22:29:17.546Z,12.89
2022-10-17T22:31:47.680Z,12.86
2022-10-17T22:34:18.978Z,12.88
2022-10-17T22:36:49.445Z,12.84
2022-10-17T22:39:18.617Z,12.87
2022-10-17T22:41:47.691Z,12.83
2022-10-17T22:44:16.533Z,12.82
2022-10-17T22:46:45.146Z,12.79
2022-10-17T22:49:15.361Z,12.78
2022-10-17T22:51:43.850Z,12.77
2022-10-17T22:54:12.294Z,12.77
2022-10-17T22:56:41.032Z,12.79
2022-10-17T22:59:09.545Z,12.75
2022-10-17T23:01:38.506Z,12.75
2022-10-17T23:04:07.142Z,12.75
2022-10-17T23:06:37.230Z,12.81
2022-10-17T23:09:05.850Z,12.88
2022-10-17T23:11:34.693Z,12.85
2022-10-17T23:14:03.248Z,12.89
2022-10-17T23:16:31.964Z,12.87
2022-10-17T23:19:00.978Z,12.80
2022-10-17T23:21:29.527Z,12.77
2022-10-17T23:23:59.487Z,12.78
2022-10-17T23:26:28.232Z,12.76
2022-10-17T23:28:56.654Z,12.76
2022-10-17T23:31:25.464Z,12.80
2022-10-17T23:33:53.934Z,12.81
2022-10-17T23:36:22.722Z,12.81
2022-10-17T23:38:53.740Z,12.74
2022-10-17T23:41:26.316Z,12.63
2022-10-17T23:43:54.897Z,12.52
2022-10-17T23:46:23.862Z,12.42
2022-10-17T23:48:52.628Z,12.34
2022-10-17T23:51:22.170Z,12.25
2022-10-17T23:53:51.014Z,12.21
2022-10-17T23:56:19.570Z,12.22
2022-10-17T23:58:50.105Z,12.24
